Time;durP1;ratioP1;P1;durP2;ratioP2;P2;SDS_P1;SDS_P2;PMS_P1;PMS_P2;Temp;Humidity;BMP_temperature;BMP_pressure;BME280_temperature;BME280_humidity;BME280_pressure;Samples;Min_cycle;Max_cycle;Signal;HPM_P1;HPM_P2
2021/10/19 00:00:14;;;;;;;;;12.75;10.00;;;;;21.21;48.32;101607.16;5016808;28;51106;-46
2021/10/19 00:02:43;;;;;;;;;7.00;7.00;;;;;21.20;48.07;101604.63;4997635;28;51118;-49
2021/10/19 00:05:09;;;;;;;;;14.75;11.50;;;;;21.21;48.69;101606.31;4999448;28;52227;-46
2021/10/19 00:07:35;;;;;;;;;9.25;9.25;;;;;21.20;48.51;101616.47;5008814;28;51790;-47
2021/10/19 00:10:01;;;;;;;;;9.50;9.00;;;;;21.20;48.25;101615.63;5006026;28;51067;-50
2021/10/19 00:12:26;;;;;;;;;8.75;8.75;;;;;21.19;48.60;101614.78;4997522;28;51241;-43
2021/10/19 00:14:52;;;;;;;;;11.00;9.25;;;;;21.20;48.64;101610.97;4997037;28;51109;-47
2021/10/19 00:17:18;;;;;;;;;13.25;11.00;;;;;21.19;48.54;101606.53;4999667;28;51078;-47
2021/10/19 00:19:43;;;;;;;;;10.50;10.25;;;;;21.18;48.46;101607.56;5005663;28;51263;-45
2021/10/19 00:22:10;;;;;;;;;10.00;10.00;;;;;21.19;48.54;101603.75;4996893;28;51105;-44
2021/10/19 00:24:36;;;;;;;;;11.00;9.25;;;;;21.19;48.25;101609.28;4999335;28;50991;-47
2021/10/19 00:27:03;;;;;;;;;8.00;8.00;;;;;21.19;48.46;101608.44;5007627;28;51482;-45
2021/10/19 00:29:29;;;;;;;;;12.50;12.50;;;;;21.18;48.19;101615.84;4997114;28;51167;-44
2021/10/19 00:31:54;;;;;;;;;8.75;8.75;;;;;21.19;48.52;101613.94;4997340;28;51058;-46
2021/10/19 00:34:19;;;;;;;;;11.50;11.50;;;;;21.20;48.61;101615.63;4983503;28;51181;-42
2021/10/19 00:36:45;;;;;;;;;10.25;9.00;;;;;21.18;48.42;101610.34;5014991;28;51169;-49
2021/10/19 00:39:10;;;;;;;;;11.00;9.75;;;;;21.18;48.48;101612.25;5007018;28;51388;-42
2021/10/19 00:41:36;;;;;;;;;9.75;9.75;;;;;21.17;48.22;101608.63;5012081;28;51415;-46
2021/10/19 00:44:01;;;;;;;;;8.25;8.25;;;;;21.18;48.68;101604.81;5002909;28;52125;-49
2021/10/19 00:46:27;;;;;;;;;9.75;9.75;;;;;21.19;48.34;101608.44;4998383;28;51133;-45
2021/10/19 00:48:52;;;;;;;;;9.75;7.00;;;;;21.18;48.42;101607.56;4996669;28;51605;-47
2021/10/19 00:51:18;;;;;;;;;11.50;10.50;;;;;21.17;48.35;101600.38;4996478;28;51119;-48
2021/10/19 00:53:45;;;;;;;;;11.50;10.25;;;;;21.17;48.46;101600.38;4996661;28;51974;-47
2021/10/19 00:56:11;;;;;;;;;7.00;6.75;;;;;21.17;48.35;101603.13;5010382;28;51378;-43
2021/10/19 00:58:38;;;;;;;;;8.50;8.50;;;;;21.17;48.48;101611.41;4998961;28;51036;-45
2021/10/19 01:01:05;;;;;;;;;11.50;9.25;;;;;21.17;48.30;101618.81;4996877;28;51326;-47
2021/10/19 01:03:30;;;;;;;;;11.00;11.00;;;;;21.17;48.47;101610.53;4997559;28;51141;-45
2021/10/19 01:05:55;;;;;;;;;7.25;7.25;;;;;21.16;48.78;101620.72;5006693;28;51108;-49
2021/10/19 01:08:21;;;;;;;;;8.00;8.00;;;;;21.15;48.56;101624.50;5012071;28;51611;-45
2021/10/19 01:10:47;;;;;;;;;10.00;8.00;;;;;21.16;48.31;101617.13;4997078;28;51356;-47
2021/10/19 01:13:12;;;;;;;;;6.50;6.50;;;;;21.17;48.43;101627.06;4996225;28;52749;-48
2021/10/19 01:15:38;;;;;;;;;6.75;6.75;;;;;21.16;48.33;101623.47;4997998;28;51082;-45
2021/10/19 01:18:04;;;;;;;;;8.25;7.50;;;;;21.16;48.29;101628.13;5005740;28;51082;-45
2021/10/19 01:20:31;;;;;;;;;7.25;7.25;;;;;21.17;48.63;101629.84;4996315;28;51034;-50
2021/10/19 01:22:59;;;;;;;;;7.50;6.75;;;;;21.16;48.26;101625.38;4996235;28;51104;-47
2021/10/19 01:25:27;;;;;;;;;7.75;6.50;;;;;21.15;48.30;101624.50;5012075;28;51313;-45
2021/10/19 01:28:04;;;;;;;;;9.75;8.50;;;;;21.16;48.34;101625.38;5000127;28;51266;-48
2021/10/19 01:30:30;;;;;;;;;5.00;4.50;;;;;21.16;48.67;101625.38;4998704;28;51352;-45
2021/10/19 01:32:56;;;;;;;;;8.00;8.00;;;;;21.16;48.54;101619.88;4995953;28;50983;-48
2021/10/19 01:35:51;;;;;;;;;9.00;8.00;;;;;21.16;48.63;101614.38;4997583;28;51196;-49
2021/10/19 01:38:23;;;;;;;;;5.75;4.75;;;;;21.14;48.39;101611.78;4995353;28;51209;-45
2021/10/19 01:40:49;;;;;;;;;8.75;7.00;;;;;21.16;48.83;101603.34;5015384;28;51151;-46
2021/10/19 01:43:18;;;;;;;;;8.00;7.00;;;;;21.17;48.73;101616.06;5014789;28;51970;-47
2021/10/19 01:45:48;;;;;;;;;5.75;5.75;;;;;21.16;48.55;101604.19;4997795;28;51058;-46
2021/10/19 01:48:13;;;;;;;;;8.25;7.25;;;;;21.16;48.72;101608.84;4995621;28;51194;-47
2021/10/19 01:50:38;;;;;;;;;8.00;7.00;;;;;21.16;48.83;101598.69;4995908;28;51128;-45
2021/10/19 01:53:06;;;;;;;;;10.75;7.25;;;;;21.16;48.32;101606.09;4995613;28;51748;-49
2021/10/19 01:55:32;;;;;;;;;8.00;7.25;;;;;21.16;48.34;101603.34;4998375;28;51089;-46
2021/10/19 01:57:57;;;;;;;;;7.50;7.25;;;;;21.15;48.72;101607.97;5014942;28;51074;-49
2021/10/19 02:00:22;;;;;;;;;6.25;6.25;;;;;21.16;48.78;101608.84;5014795;28;51337;-47
2021/10/19 02:02:49;;;;;;;;;7.00;7.00;;;;;21.16;48.46;101612.47;5003192;28;51140;-47
2021/10/19 02:05:14;;;;;;;;;8.00;5.75;;;;;21.16;48.40;101617.97;5001999;28;51078;-47
2021/10/19 02:07:40;;;;;;;;;6.75;6.75;;;;;21.15;48.70;101607.97;4996856;28;51213;-43
2021/10/19 02:10:07;;;;;;;;;6.75;6.00;;;;;21.15;48.34;101615.38;4995658;28;51190;-48
2021/10/19 02:12:32;;;;;;;;;6.00;6.00;;;;;21.15;48.46;101613.47;4995389;28;51067;-48
2021/10/19 02:14:58;;;;;;;;;6.75;6.75;;;;;21.15;48.81;101607.13;4996343;28;51147;-46
2021/10/19 02:17:23;;;;;;;;;6.50;5.50;;;;;21.15;48.85;101607.13;4996759;28;51067;-48
2021/10/19 02:19:48;;;;;;;;;6.25;6.25;;;;;21.16;48.29;101603.34;4977699;28;51230;-49
2021/10/19 02:22:14;;;;;;;;;7.50;6.75;;;;;21.15;48.38;101604.38;4995111;28;51042;-46
2021/10/19 02:24:39;;;;;;;;;7.00;7.00;;;;;21.15;48.28;101602.47;4997400;28;51300;-48
2021/10/19 02:27:05;;;;;;;;;5.50;5.50;;;;;21.16;48.58;101592.31;5004798;28;51016;-47
2021/10/19 02:29:30;;;;;;;;;6.50;6.50;;;;;21.15;48.68;101594.19;4995799;28;51207;-49
2021/10/19 02:31:55;;;;;;;;;7.75;7.25;;;;;21.16;48.22;101601.44;4995039;28;50929;-48
2021/10/19 02:34:22;;;;;;;;;6.75;6.50;;;;;21.15;48.29;101594.19;5006952;28;51115;-46
2021/10/19 02:36:48;;;;;;;;;6.00;6.00;;;;;21.15;48.78;101596.94;5014350;28;51038;-50
2021/10/19 02:39:13;;;;;;;;;9.25;7.50;;;;;21.14;48.57;101592.50;5014311;28;51379;-46
2021/10/19 02:41:39;;;;;;;;;7.00;5.25;;;;;21.14;48.63;101597.16;4996485;28;52074;-50
2021/10/19 02:44:05;;;;;;;;;6.50;6.50;;;;;21.15;48.40;101599.72;5009542;28;51196;-49
2021/10/19 02:46:34;;;;;;;;;5.75;5.75;;;;;21.14;48.41;101600.78;5014477;28;51287;-47
2021/10/19 02:49:00;;;;;;;;;7.75;6.75;;;;;21.15;48.55;101594.19;5014461;28;51162;-49
2021/10/19 02:51:26;;;;;;;;;8.00;6.50;;;;;21.14;48.57;101589.75;5013696;28;51903;-43
2021/10/19 02:53:55;;;;;;;;;5.75;5.75;;;;;21.14;48.31;101589.75;5008368;28;51284;-47
2021/10/19 02:56:21;;;;;;;;;8.50;6.50;;;;;21.15;48.09;101593.34;5014385;28;51090;-43
2021/10/19 02:58:46;;;;;;;;;9.50;7.75;;;;;21.15;48.36;101596.94;4990783;28;51215;-50
2021/10/19 03:01:12;;;;;;;;;6.00;5.75;;;;;21.16;48.65;101597.84;5017514;28;51853;-50
2021/10/19 03:03:38;;;;;;;;;8.00;7.25;;;;;21.14;48.78;101595.25;5008920;28;51255;-47
2021/10/19 03:06:03;;;;;;;;;8.25;7.00;;;;;21.15;48.74;101601.63;5002607;28;51681;-48
2021/10/19 03:08:28;;;;;;;;;5.25;5.25;;;;;21.15;48.36;101596.94;4998445;28;51204;-43
2021/10/19 03:10:54;;;;;;;;;5.75;5.75;;;;;21.15;48.23;101601.63;4998186;28;51014;-45
2021/10/19 03:13:20;;;;;;;;;6.00;6.00;;;;;21.13;48.36;101604.59;4998138;28;51083;-43
2021/10/19 03:15:45;;;;;;;;;5.75;4.75;;;;;21.14;48.80;101609.03;4998073;28;51198;-43
2021/10/19 03:18:11;;;;;;;;;6.50;5.25;;;;;21.15;48.66;101607.13;4998122;28;51026;-47
2021/10/19 03:20:36;;;;;;;;;6.50;5.50;;;;;21.14;48.90;101598.00;4997992;28;51024;-49
2021/10/19 03:23:01;;;;;;;;;5.25;5.25;;;;;21.15;48.29;101607.13;5011124;28;51141;-48
2021/10/19 03:25:27;;;;;;;;;5.25;5.25;;;;;21.15;48.29;101596.94;5013833;28;51216;-48
2021/10/19 03:27:52;;;;;;;;;6.50;5.25;;;;;21.14;48.32;101595.25;5001791;28;51061;-49
2021/10/19 03:30:18;;;;;;;;;5.75;5.75;;;;;21.15;48.69;101605.22;4997788;28;50948;-48
2021/10/19 03:32:43;;;;;;;;;7.00;5.75;;;;;21.14;48.94;101603.53;5016484;28;51020;-48
2021/10/19 03:35:09;;;;;;;;;8.00;6.00;;;;;21.14;48.58;101600.78;4991430;28;51160;-47
2021/10/19 03:37:35;;;;;;;;;5.00;5.00;;;;;21.15;48.69;101602.47;5015049;28;51014;-49
2021/10/19 03:40:00;;;;;;;;;9.00;6.00;;;;;21.14;48.56;101606.28;5017026;28;51030;-47
2021/10/19 03:42:26;;;;;;;;;7.75;5.75;;;;;21.14;48.80;101609.03;5003292;28;51278;-48
2021/10/19 03:44:51;;;;;;;;;5.00;5.00;;;;;21.14;48.62;101611.78;5013258;28;51045;-49
2021/10/19 03:47:17;;;;;;;;;8.50;7.25;;;;;21.14;48.35;101599.91;5015688;28;51149;-43
2021/10/19 03:49:42;;;;;;;;;6.00;6.00;;;;;21.12;48.71;101597.38;5016442;28;51081;-44
2021/10/19 03:52:08;;;;;;;;;6.25;6.00;;;;;21.14;49.09;101614.53;5016860;28;51073;-47
2021/10/19 03:54:33;;;;;;;;;5.75;4.75;;;;;21.15;48.49;101619.00;5010580;28;51162;-49
2021/10/19 03:56:59;;;;;;;;;5.00;5.00;;;;;21.14;48.60;101622.81;4997986;28;51190;-49
2021/10/19 03:59:24;;;;;;;;;7.75;6.75;;;;;21.14;48.56;101617.31;5016694;28;51117;-48
2021/10/19 04:01:49;;;;;;;;;5.00;4.25;;;;;21.14;48.79;101617.31;4999996;28;51054;-46
2021/10/19 04:04:15;;;;;;;;;9.50;8.00;;;;;21.14;49.00;101616.44;4998892;28;51020;-49
2021/10/19 04:06:40;;;;;;;;;6.25;5.00;;;;;21.14;48.70;101611.78;5002380;28;50957;-47
2021/10/19 04:09:06;;;;;;;;;5.00;4.00;;;;;21.14;48.97;101614.53;4997193;28;51891;-49
2021/10/19 04:11:31;;;;;;;;;6.50;6.00;;;;;21.13;49.05;101618.34;4996055;28;51039;-49
2021/10/19 04:13:57;;;;;;;;;5.50;5.50;;;;;21.14;48.92;101619.22;5002500;28;51088;-48
2021/10/19 04:16:22;;;;;;;;;8.25;7.00;;;;;21.12;48.73;101613.91;4997488;28;51097;-44
2021/10/19 04:18:48;;;;;;;;;5.75;5.00;;;;;21.13;48.83;101626.63;4998145;28;51151;-49
2021/10/19 04:21:13;;;;;;;;;5.25;5.00;;;;;21.13;48.60;101626.63;4997216;28;50960;-43
2021/10/19 04:23:39;;;;;;;;;6.75;5.25;;;;;21.13;48.60;101626.63;5003817;28;51154;-46
2021/10/19 04:26:04;;;;;;;;;5.50;5.00;;;;;21.13;49.00;101629.38;5006889;28;51138;-46
2021/10/19 04:28:30;;;;;;;;;7.00;5.75;;;;;21.11;48.99;101623.22;4997031;28;51774;-47
2021/10/19 04:30:55;;;;;;;;;9.50;7.00;;;;;21.13;49.00;101629.38;4997316;28;51035;-49
2021/10/19 04:33:20;;;;;;;;;7.00;5.75;;;;;21.14;48.50;101635.75;4997398;28;51124;-45
2021/10/19 04:35:46;;;;;;;;;5.00;5.00;;;;;21.14;49.26;101633.81;4996885;28;51416;-49
2021/10/19 04:38:11;;;;;;;;;6.00;6.00;;;;;21.12;49.20;101638.72;4998975;28;51209;-43
2021/10/19 04:40:37;;;;;;;;;6.25;4.25;;;;;21.14;48.69;101633.81;4998456;28;50980;-45
2021/10/19 04:43:02;;;;;;;;;6.25;6.25;;;;;21.13;49.21;101625.78;5009635;28;51325;-41
2021/10/19 04:45:29;;;;;;;;;6.75;6.75;;;;;21.14;49.17;101633.81;5008358;28;51309;-49
2021/10/19 04:48:00;;;;;;;;;5.00;5.00;;;;;21.14;49.38;101633.81;5009260;28;51759;-48
2021/10/19 04:50:26;;;;;;;;;5.50;5.00;;;;;21.14;48.86;101639.34;4996495;28;51543;-46
2021/10/19 04:52:52;;;;;;;;;7.50;4.25;;;;;21.14;49.36;101639.34;5001263;28;51361;-49
2021/10/19 04:55:17;;;;;;;;;5.00;5.00;;;;;21.14;48.85;101639.34;5000173;28;51941;-48
2021/10/19 04:57:42;;;;;;;;;5.00;5.00;;;;;21.14;49.16;101628.31;4997554;28;51107;-46
2021/10/19 05:00:08;;;;;;;;;6.50;5.25;;;;;21.14;49.16;101630.22;4997552;28;51097;-48
2021/10/19 05:02:42;;;;;;;;;6.00;6.00;;;;;21.14;48.62;101635.75;4998394;28;51086;-46
2021/10/19 05:05:08;;;;;;;;;6.75;4.50;;;;;21.13;49.02;101632.13;4996628;28;51192;-45
2021/10/19 05:07:33;;;;;;;;;7.50;7.00;;;;;21.11;49.92;101637.00;5001456;28;51078;-43
2021/10/19 05:09:58;;;;;;;;;7.00;7.00;;;;;21.08;50.50;101647.59;4996385;28;51015;-45
2021/10/19 05:12:23;;;;;;;;;11.00;11.00;;;;;21.06;51.30;101649.72;4996469;28;51058;-45
2021/10/19 05:14:49;;;;;;;;;11.00;8.50;;;;;21.03;51.33;101648.22;4996659;28;51067;-45
2021/10/19 05:17:14;;;;;;;;;10.00;8.50;;;;;21.01;51.85;101645.66;4997093;28;51582;-46
2021/10/19 05:19:39;;;;;;;;;13.50;10.25;;;;;20.99;52.58;101647.78;4996322;28;51130;-48
2021/10/19 05:22:05;;;;;;;;;9.50;7.50;;;;;21.01;52.78;101639.31;4995487;28;51348;-44
2021/10/19 05:24:30;;;;;;;;;11.00;11.00;;;;;21.09;52.35;101644.63;4999873;28;50976;-48
2021/10/19 05:26:55;;;;;;;;;12.25;12.25;;;;;21.19;52.58;101631.31;5002141;28;51018;-41
2021/10/19 05:29:21;;;;;;;;;13.75;11.50;;;;;21.30;51.99;101627.13;4996246;28;50928;-42
2021/10/19 05:31:47;;;;;;;;;8.75;6.50;;;;;21.41;51.82;101628.41;5009417;28;51142;-45
2021/10/19 05:34:12;;;;;;;;;10.00;7.75;;;;;21.52;52.15;101633.31;5003415;28;50993;-44
2021/10/19 05:36:37;;;;;;;;;8.25;7.25;;;;;21.61;51.51;101629.28;5008837;28;51056;-43
2021/10/19 05:39:04;;;;;;;;;9.00;9.00;;;;;21.69;51.55;101626.34;5007986;28;51127;-45
2021/10/19 05:41:30;;;;;;;;;5.75;5.75;;;;;21.74;50.78;101625.69;4996636;28;51299;-42
2021/10/19 05:43:55;;;;;;;;;6.25;6.25;;;;;21.74;51.16;101620.16;4996142;28;51051;-46
2021/10/19 05:46:20;;;;;;;;;10.75;7.75;;;;;21.74;50.77;101620.16;5009786;28;52554;-46
2021/10/19 05:48:46;;;;;;;;;9.00;8.00;;;;;21.74;50.61;101617.41;5014192;28;51078;-45
2021/10/19 05:51:11;;;;;;;;;7.75;6.25;;;;;21.70;50.44;101619.75;5001126;28;50966;-46
2021/10/19 05:53:36;;;;;;;;;6.25;5.00;;;;;21.70;50.37;101618.91;4992251;28;51060;-43
2021/10/19 05:56:02;;;;;;;;;9.50;7.50;;;;;21.69;50.60;101617.22;4999495;28;51891;-47
2021/10/19 05:58:27;;;;;;;;;7.25;6.25;;;;;21.69;50.25;101615.31;4977841;28;51126;-45
2021/10/19 06:00:52;;;;;;;;;6.50;6.50;;;;;21.67;50.31;101617.41;4995603;28;51115;-43
2021/10/19 06:03:18;;;;;;;;;8.00;8.00;;;;;21.66;50.68;101625.88;5011867;28;51240;-50
2021/10/19 06:05:43;;;;;;;;;6.75;5.50;;;;;21.65;50.75;101619.53;5013838;28;51733;-44
2021/10/19 06:08:09;;;;;;;;;5.50;4.00;;;;;21.69;50.26;101629.09;5013233;28;51093;-46
2021/10/19 06:10:34;;;;;;;;;5.00;5.00;;;;;21.76;50.60;101632.69;5012570;28;51161;-44
2021/10/19 06:12:59;;;;;;;;;6.00;5.50;;;;;21.80;50.11;101636.72;5005030;28;51062;-46
2021/10/19 06:15:26;;;;;;;;;7.50;6.50;;;;;21.81;50.16;101635.66;5009195;28;53853;-48
2021/10/19 06:17:52;;;;;;;;;8.00;8.00;;;;;21.82;50.16;101625.47;4994697;28;51373;-47
2021/10/19 06:20:17;;;;;;;;;7.00;7.00;;;;;21.81;50.20;101630.16;5010533;28;51344;-47
2021/10/19 06:22:43;;;;;;;;;8.75;7.75;;;;;21.80;50.74;101635.88;4996025;28;51222;-46
2021/10/19 06:25:09;;;;;;;;;6.75;6.75;;;;;21.78;50.54;101635.22;4999712;28;51912;-49
2021/10/19 06:27:34;;;;;;;;;11.25;10.25;;;;;21.78;50.50;101640.75;5008520;28;51145;-47
2021/10/19 06:30:01;;;;;;;;;6.25;5.25;;;;;21.77;50.68;101642.66;5012885;28;51408;-44
2021/10/19 06:32:26;;;;;;;;;8.25;7.50;;;;;21.76;50.67;101640.09;5010821;28;50979;-48
2021/10/19 06:34:52;;;;;;;;;8.00;6.25;;;;;21.75;50.80;101642.00;5014880;28;51914;-47
2021/10/19 06:37:17;;;;;;;;;10.25;8.50;;;;;21.74;50.92;101642.22;5018000;28;51057;-49
2021/10/19 06:39:42;;;;;;;;;6.25;6.00;;;;;21.73;51.18;101649.66;5017929;28;51217;-45
2021/10/19 06:42:08;;;;;;;;;9.50;9.50;;;;;21.71;50.73;101657.31;5018299;28;51062;-46
2021/10/19 06:44:33;;;;;;;;;8.25;7.25;;;;;21.70;51.24;101647.34;5017336;28;51812;-46
2021/10/19 06:46:59;;;;;;;;;7.50;7.50;;;;;21.67;51.31;101653.25;5017753;28;51034;-47
2021/10/19 06:49:24;;;;;;;;;11.25;8.50;;;;;21.66;51.24;101653.47;5017574;28;51133;-45
2021/10/19 06:51:49;;;;;;;;;9.00;9.00;;;;;21.65;51.44;101655.38;5017569;28;51074;-45
2021/10/19 06:54:15;;;;;;;;;11.50;10.75;;;;;21.64;51.27;101655.59;4999165;28;52914;-50
2021/10/19 06:56:40;;;;;;;;;10.25;9.75;;;;;21.63;51.18;101648.38;5017633;28;51028;-45
2021/10/19 06:59:06;;;;;;;;;8.25;7.50;;;;;21.61;51.34;101645.84;5017403;28;51185;-51
2021/10/19 07:01:31;;;;;;;;;10.25;10.25;;;;;21.61;51.28;101654.09;5016146;28;51039;-49
2021/10/19 07:03:57;;;;;;;;;8.00;8.00;;;;;21.60;51.53;101649.66;5016616;28;51727;-48
2021/10/19 07:06:24;;;;;;;;;10.25;9.00;;;;;21.60;51.23;101656.03;5011310;28;51266;-47
2021/10/19 07:08:49;;;;;;;;;14.25;10.75;;;;;21.59;51.33;101648.81;5013104;28;51309;-46
2021/10/19 07:11:14;;;;;;;;;11.50;8.50;;;;;21.59;51.14;101659.00;5017288;28;50983;-46
2021/10/19 07:13:40;;;;;;;;;9.25;7.75;;;;;21.58;50.89;101663.66;5015236;28;51177;-48
2021/10/19 07:16:05;;;;;;;;;10.00;9.25;;;;;21.58;51.46;101662.81;5010696;28;51134;-48
2021/10/19 07:18:30;;;;;;;;;11.25;10.75;;;;;21.56;50.87;101657.47;5011294;28;51289;-46
2021/10/19 07:20:56;;;;;;;;;10.00;9.00;;;;;21.56;51.38;101657.47;5003481;28;51306;-50
2021/10/19 07:23:22;;;;;;;;;9.00;9.00;;;;;21.56;51.30;101663.00;5012944;28;51336;-48
2021/10/19 07:25:48;;;;;;;;;8.25;7.50;;;;;21.56;51.18;101659.38;5000954;28;51222;-46
2021/10/19 07:28:13;;;;;;;;;10.50;8.50;;;;;21.54;50.77;101665.13;5012916;28;51238;-49
2021/10/19 07:30:39;;;;;;;;;9.25;9.00;;;;;21.54;50.65;101672.53;5010065;28;51072;-47
2021/10/19 07:33:05;;;;;;;;;8.00;8.00;;;;;21.54;51.17;101661.50;4996750;28;51082;-45
2021/10/19 07:35:30;;;;;;;;;10.25;9.25;;;;;21.54;50.69;101667.03;5001713;28;51098;-48
2021/10/19 07:37:55;;;;;;;;;11.50;9.50;;;;;21.54;51.10;101672.53;5006726;28;51106;-48
2021/10/19 07:40:22;;;;;;;;;10.00;10.00;;;;;21.53;50.87;101670.84;5001444;28;51145;-43
2021/10/19 07:42:48;;;;;;;;;11.25;8.50;;;;;21.52;50.73;101669.16;4997323;28;51292;-48
2021/10/19 07:45:14;;;;;;;;;11.00;7.50;;;;;21.52;50.51;101672.75;4996450;28;50974;-48
2021/10/19 07:47:44;;;;;;;;;8.75;8.50;;;;;21.53;50.93;101673.59;4996562;28;51213;-46
2021/10/19 07:50:11;;;;;;;;;7.50;7.50;;;;;21.53;50.64;101674.44;5000452;28;51253;-43
2021/10/19 07:52:37;;;;;;;;;10.00;9.25;;;;;21.53;50.65;101676.34;4998481;28;51368;-46
2021/10/19 07:55:04;;;;;;;;;10.25;8.25;;;;;21.52;50.83;101670.00;5005800;28;51546;-47
2021/10/19 07:57:29;;;;;;;;;8.00;7.00;;;;;21.52;50.75;101670.00;5015544;28;51123;-49
2021/10/19 07:59:54;;;;;;;;;9.50;7.75;;;;;21.53;50.69;101666.19;5015696;28;51255;-47
2021/10/19 08:02:20;;;;;;;;;9.50;7.50;;;;;21.52;50.39;101666.41;4981009;28;51882;-47
2021/10/19 08:04:45;;;;;;;;;7.25;7.25;;;;;21.52;50.37;101671.91;5013834;28;51129;-45
2021/10/19 08:07:10;;;;;;;;;10.25;9.50;;;;;21.52;50.38;101674.66;5007996;28;51185;-47
2021/10/19 08:09:36;;;;;;;;;8.75;8.75;;;;;21.53;50.21;101673.59;4996552;28;51103;-49
2021/10/19 08:12:01;;;;;;;;;6.00;6.00;;;;;21.53;50.30;101682.72;5006052;28;51768;-50
2021/10/19 08:14:26;;;;;;;;;10.25;10.00;;;;;21.54;50.60;101683.56;5015487;28;51215;-48
2021/10/19 08:16:52;;;;;;;;;9.00;6.75;;;;;21.53;50.17;101679.13;5005477;28;51157;-44
2021/10/19 08:19:17;;;;;;;;;8.75;8.75;;;;;21.54;50.47;101689.06;5015302;28;51275;-49
2021/10/19 08:21:42;;;;;;;;;12.25;9.00;;;;;21.55;50.25;101694.38;4999194;28;51091;-49
2021/10/19 08:24:08;;;;;;;;;11.25;9.00;;;;;21.54;50.42;101691.84;4996035;28;51102;-50
2021/10/19 08:26:33;;;;;;;;;11.00;10.25;;;;;21.55;50.31;101685.25;4997050;28;51194;-50
2021/10/19 08:29:01;;;;;;;;;6.75;6.25;;;;;21.53;50.40;101692.91;5004828;28;51016;-52
2021/10/19 08:31:26;;;;;;;;;8.00;8.00;;;;;21.52;50.32;101700.31;5000814;28;52015;-49
2021/10/19 08:33:53;;;;;;;;;8.25;7.25;;;;;21.52;50.25;101705.84;4998909;28;51120;-49
2021/10/19 08:36:19;;;;;;;;;8.00;8.00;;;;;21.52;49.77;101710.50;4996228;28;51157;-47
2021/10/19 08:38:45;;;;;;;;;7.00;6.00;;;;;21.51;49.93;101712.41;5011627;28;50963;-46
2021/10/19 08:41:11;;;;;;;;;9.50;7.25;;;;;21.52;49.94;101714.09;5001292;28;51342;-48
2021/10/19 08:43:38;;;;;;;;;7.75;7.75;;;;;21.52;50.32;101719.63;4996200;28;51361;-46
2021/10/19 08:46:07;;;;;;;;;10.75;7.75;;;;;21.52;50.32;101708.59;5005998;28;51164;-49
2021/10/19 08:48:32;;;;;;;;;7.50;6.00;;;;;21.53;50.17;101714.94;4996482;28;51204;-47
2021/10/19 08:50:58;;;;;;;;;8.00;7.25;;;;;21.54;49.76;101711.13;4995635;28;51589;-49
2021/10/19 08:53:24;;;;;;;;;8.00;8.00;;;;;21.56;49.68;101709.00;5002266;28;51328;-50
2021/10/19 08:55:50;;;;;;;;;9.00;8.00;;;;;21.56;49.88;101709.88;5014206;28;51467;-49
2021/10/19 08:58:16;;;;;;;;;9.25;7.25;;;;;21.59;50.14;101708.63;5000374;28;51186;-47
2021/10/19 09:00:41;;;;;;;;;6.00;6.00;;;;;21.62;50.12;101705.44;5013252;28;51927;-51
2021/10/19 09:03:07;;;;;;;;;7.75;7.00;;;;;21.64;49.78;101705.22;5011176;28;51413;-47
2021/10/19 09:05:32;;;;;;;;;8.00;7.00;;;;;21.67;49.98;101702.03;5008946;28;51058;-46
2021/10/19 09:07:59;;;;;;;;;7.00;5.25;;;;;21.71;49.66;101700.56;4995511;28;51345;-48
2021/10/19 09:10:26;;;;;;;;;8.00;8.00;;;;;21.74;50.02;101703.75;5000340;28;51129;-45
2021/10/19 09:12:59;;;;;;;;;9.00;9.00;;;;;21.77;49.51;101700.56;4995963;28;51070;-46
2021/10/19 09:15:30;;;;;;;;;8.75;8.25;;;;;21.81;49.85;101692.75;4998957;28;51189;-49
2021/10/19 09:18:07;;;;;;;;;10.50;9.00;;;;;21.85;49.68;101699.50;5004206;28;51333;-49
2021/10/19 09:20:39;;;;;;;;;9.50;7.50;;;;;21.87;49.37;101686.34;5011079;28;51089;-49
2021/10/19 09:23:06;;;;;;;;;8.50;7.00;;;;;21.90;49.07;101686.81;5010493;28;51118;-49
2021/10/19 09:25:51;;;;;;;;;8.25;8.25;;;;;21.94;49.63;101689.13;4997048;28;51344;-49
2021/10/19 09:28:39;;;;;;;;;8.75;7.50;;;;;21.99;49.56;101687.44;4997817;28;51172;-50
2021/10/19 09:31:06;;;;;;;;;10.00;8.00;;;;;22.02;49.41;101694.44;5000777;28;51704;-50
2021/10/19 09:33:32;;;;;;;;;7.75;7.75;;;;;22.06;49.39;101691.06;5003292;28;51161;-47
2021/10/19 09:36:01;;;;;;;;;9.25;8.25;;;;;22.10;49.23;101699.78;5013180;28;51030;-51
2021/10/19 09:38:27;;;;;;;;;8.75;8.00;;;;;22.14;49.08;101693.63;5012294;28;51343;-51
2021/10/19 09:40:56;;;;;;;;;10.50;9.75;;;;;22.17;48.78;101690.41;5011438;28;52318;-50
2021/10/19 09:43:27;;;;;;;;;7.75;7.75;;;;;22.21;49.17;101685.34;5012578;28;51099;-46
2021/10/19 09:45:55;;;;;;;;;8.25;7.25;;;;;22.25;48.82;101694.03;5007132;28;51089;-49
2021/10/19 09:48:27;;;;;;;;;10.25;9.00;;;;;22.29;48.77;101693.38;5011460;28;51379;-45
2021/10/19 09:50:53;;;;;;;;;9.00;8.75;;;;;22.33;48.82;101696.59;5007266;28;51818;-45
2021/10/19 09:53:22;;;;;;;;;8.00;8.00;;;;;22.36;48.51;101691.47;5007941;28;51162;-47
2021/10/19 09:55:52;;;;;;;;;8.00;6.25;;;;;22.40;48.51;101700.16;5003438;28;51145;-46
2021/10/19 09:58:19;;;;;;;;;10.00;9.25;;;;;22.43;48.62;101699.75;4996082;28;51028;-48
2021/10/19 10:00:45;;;;;;;;;9.25;8.00;;;;;22.45;48.12;101695.72;4993780;28;51994;-44
2021/10/19 10:03:14;;;;;;;;;10.50;7.25;;;;;22.50;48.75;101705.25;4993850;28;51118;-46
2021/10/19 10:05:41;;;;;;;;;8.25;7.25;;;;;22.52;48.24;101692.94;5008060;28;51108;-48
2021/10/19 10:08:11;;;;;;;;;8.75;7.25;;;;;22.55;48.16;101692.50;5004133;28;51400;-43
2021/10/19 10:10:37;;;;;;;;;7.00;7.00;;;;;22.57;48.14;101695.91;4999629;28;50977;-43
2021/10/19 10:13:12;;;;;;;;;9.50;8.75;;;;;22.61;48.47;101691.63;5007450;28;50984;-47
2021/10/19 10:15:38;;;;;;;;;9.50;7.00;;;;;22.62;48.49;101682.31;5015761;28;51937;-48
2021/10/19 10:18:05;;;;;;;;;7.75;7.75;;;;;22.65;48.13;101687.38;5014901;28;51147;-48
2021/10/19 10:20:38;;;;;;;;;8.25;7.50;;;;;22.68;48.60;101686.09;5002004;28;51205;-45
2021/10/19 10:23:24;;;;;;;;;8.25;6.75;;;;;22.68;48.61;101684.19;5013152;28;51102;-48
2021/10/19 10:25:51;;;;;;;;;6.75;6.00;;;;;22.71;48.52;101678.22;5003853;28;51051;-45
2021/10/19 10:28:31;;;;;;;;;9.75;9.75;;;;;22.73;48.33;101684.38;5009329;28;51190;-43
2021/10/19 10:30:58;;;;;;;;;8.50;7.25;;;;;22.74;48.02;101676.94;4998763;28;51811;-45
2021/10/19 10:33:37;;;;;;;;;6.75;6.75;;;;;22.77;48.05;101680.13;5008870;28;51825;-44
2021/10/19 10:36:10;;;;;;;;;4.50;4.50;;;;;22.78;48.14;101678.19;5000414;28;51252;-47
2021/10/19 10:38:38;;;;;;;;;6.75;6.00;;;;;22.80;48.35;101680.75;4997314;28;51233;-46
2021/10/19 10:41:15;;;;;;;;;8.00;7.00;;;;;22.80;48.14;101667.78;4998351;28;51056;-45
2021/10/19 10:43:42;;;;;;;;;8.00;6.00;;;;;22.82;48.23;101671.16;4997369;28;51048;-46
2021/10/19 10:46:16;;;;;;;;;7.00;7.00;;;;;22.84;47.75;101662.72;5009798;28;51067;-46
2021/10/19 10:48:42;;;;;;;;;8.50;7.25;;;;;22.85;47.96;101665.25;4996871;28;51155;-48
2021/10/19 10:51:11;;;;;;;;;6.50;5.00;;;;;22.86;48.28;101669.72;4997428;28;51013;-45
2021/10/19 10:53:45;;;;;;;;;7.00;7.00;;;;;22.87;48.31;101654.81;4996410;28;51322;-45
2021/10/19 10:56:12;;;;;;;;;5.75;4.50;;;;;22.89;47.82;101652.69;4997950;28;51173;-45
2021/10/19 10:58:39;;;;;;;;;7.00;7.00;;;;;22.89;48.22;101651.84;5007334;28;51132;-47
2021/10/19 11:01:15;;;;;;;;;8.25;7.50;;;;;22.90;47.68;101640.56;5015846;28;51078;-43
2021/10/19 11:03:42;;;;;;;;;8.25;6.00;;;;;22.92;47.78;101643.09;5013595;28;51131;-48
2021/10/19 11:06:12;;;;;;;;;8.00;8.00;;;;;22.93;47.66;101639.31;5013910;28;51018;-45
2021/10/19 11:08:38;;;;;;;;;7.00;6.25;;;;;22.94;48.17;101633.56;5012631;28;51541;-44
2021/10/19 11:11:10;;;;;;;;;6.00;5.50;;;;;22.95;47.92;101634.41;5006861;28;51764;-45
2021/10/19 11:13:49;;;;;;;;;6.75;6.75;;;;;22.96;48.31;101633.31;5012221;28;51253;-45
2021/10/19 11:16:16;;;;;;;;;8.00;7.25;;;;;22.97;48.06;101635.03;4999049;28;51369;-48
2021/10/19 11:18:41;;;;;;;;;7.50;5.00;;;;;22.97;47.76;101622.06;5015283;28;51386;-43